Time,TemperatureF,DewpointF,PressureIn,WindDirection,WindDirectionDegrees,WindSpeedMPH,WindSpeedGustMPH,Humidity,HourlyPrecipIn,Conditions,Clouds,dailyrainin,SoftwareType,DateUTC
2013-02-22 00:00:00,29.7,12.8,30.28,NNW,340,6.0,7.0,49,0.00,CLR,,0.00,WeatherDisplay:10.37,2013-02-22 05:00:00,
2013-02-22 00:15:00,29.8,13.0,30.28,North,350,6.0,8.0,49,0.00,CLR,,0.00,WeatherDisplay:10.37,2013-02-22 05:15:00,
2013-02-22 00:30:00,29.3,12.5,30.28,NNW,346,6.0,8.0,49,0.00,CLR,,0.00,WeatherDisplay:10.37,2013-02-22 05:30:00,
2013-02-22 00:45:00,28.6,11.8,30.28,NNW,346,5.0,7.0,49,0.00,CLR,,0.00,WeatherDisplay:10.37,2013-02-22 05:45:00,
2013-02-22 01:00:00,28.6,11.8,30.28,North,355,3.0,6.0,49,0.00,CLR,,0.00,WeatherDisplay:10.37,2013-02-22 06:00:00,
2013-02-22 01:15:00,27.9,11.1,30.28,NNW,346,3.0,7.0,49,0.00,CLR,,0.00,WeatherDisplay:10.37,2013-02-22 06:15:00,
2013-02-22 01:30:00,27.5,11.3,30.28,North,355,2.0,2.0,50,0.00,CLR,,0.00,WeatherDisplay:10.37,2013-02-22 06:30:00,
2013-02-22 01:45:00,27.0,11.2,30.31,NNW,348,0.0,2.0,51,0.00,CLR,,0.00,WeatherDisplay:10.37,2013-02-22 06:45:00,
2013-02-22 02:00:00,27.0,11.2,30.31,North,350,1.0,2.0,51,0.00,CLR,,0.00,WeatherDisplay:10.37,2013-02-22 07:00:00,
2013-02-22 02:15:00,26.8,11.0,30.31,North,357,1.0,2.0,51,0.00,CLR,,0.00,WeatherDisplay:10.37,2013-02-22 07:15:00,
2013-02-22 02:30:00,27.1,11.4,30.28,North,357,3.0,10.0,51,0.00,CLR,,0.00,WeatherDisplay:10.37,2013-02-22 07:30:00,
2013-02-22 02:45:00,27.0,11.2,30.28,North,7,2.0,5.0,51,0.00,CLR,,0.00,WeatherDisplay:10.37,2013-02-22 07:45:00,
2013-02-22 03:00:00,27.1,10.9,30.28,North,354,5.0,8.0,50,0.00,CLR,,0.00,WeatherDisplay:10.37,2013-02-22 08:00:00,
2013-02-22 03:15:00,27.0,10.3,30.31,North,1,5.0,6.0,49,0.00,CLR,,0.00,WeatherDisplay:10.37,2013-02-22 08:15:00,
2013-02-22 03:30:00,27.0,10.8,30.31,North,358,3.0,6.0,50,0.00,CLR,,0.00,WeatherDisplay:10.37,2013-02-22 08:30:00,
2013-02-22 03:45:00,26.8,10.6,30.31,North,355,3.0,6.0,50,0.00,CLR,,0.00,WeatherDisplay:10.37,2013-02-22 08:45:00,
2013-02-22 04:00:00,27.0,10.3,30.31,North,353,5.0,9.0,49,0.00,CLR,,0.00,WeatherDisplay:10.37,2013-02-22 09:00:00,
2013-02-22 04:15:00,26.6,10.0,30.34,North,353,7.0,9.0,49,0.00,CLR,,0.00,WeatherDisplay:10.37,2013-02-22 09:15:00,
2013-02-22 04:30:00,26.4,10.3,30.34,NNW,348,3.0,6.0,50,0.00,CLR,,0.00,WeatherDisplay:10.37,2013-02-22 09:30:00,
2013-02-22 04:45:00,26.2,10.5,30.34,North,354,2.0,2.0,51,0.00,CLR,,0.00,WeatherDisplay:10.37,2013-02-22 09:45:00,
2013-02-22 05:00:00,26.2,10.5,30.34,North,359,1.0,3.0,51,0.00,CLR,,0.00,WeatherDisplay:10.37,2013-02-22 10:00:00,
2013-02-22 05:15:00,26.1,9.9,30.37,NNE,28,1.0,3.0,50,0.00,CLR,,0.00,WeatherDisplay:10.37,2013-02-22 10:15:00,
2013-02-22 05:30:00,26.1,9.9,30.37,North,0,0.0,1.0,50,0.00,CLR,,0.00,WeatherDisplay:10.37,2013-02-22 10:30:00,
2013-02-22 05:45:00,26.1,9.9,30.37,NNW,332,0.0,0.0,50,0.00,CLR,,0.00,WeatherDisplay:10.37,2013-02-22 10:45:00,
2013-02-22 06:00:00,26.1,9.9,30.37,NNW,329,0.0,0.0,50,0.00,CLR,,0.00,WeatherDisplay:10.37,2013-02-22 11:00:00,
2013-02-22 06:15:00,26.2,10.1,30.37,North,349,1.0,4.0,50,0.00,CLR,,0.00,WeatherDisplay:10.37,2013-02-22 11:15:00,
2013-02-22 06:30:00,26.1,10.4,30.37,North,350,1.0,2.0,51,0.00,CLR,,0.00,WeatherDisplay:10.37,2013-02-22 11:30:00,
2013-02-22 06:45:00,26.4,10.7,30.37,North,355,1.0,2.0,51,0.00,CLR,,0.00,WeatherDisplay:10.37,2013-02-22 11:45:00,
2013-02-22 07:00:00,26.2,10.5,30.40,North,355,0.0,2.0,51,0.00,CLR,,0.00,WeatherDisplay:10.37,2013-02-22 12:00:00,
2013-02-22 07:15:00,26.4,11.2,30.37,NNW,345,0.0,0.0,52,0.00,CLR,,0.00,WeatherDisplay:10.37,2013-02-22 12:15:00,
2013-02-22 07:30:00,26.6,10.9,30.37,NNE,22,1.0,5.0,51,0.00,CLR,,0.00,WeatherDisplay:10.37,2013-02-22 12:30:00,
2013-02-22 07:45:00,27.1,11.4,30.37,North,10,1.0,1.0,51,0.00,CLR,,0.00,WeatherDisplay:10.37,2013-02-22 12:45:00,
2013-02-22 08:00:00,27.9,11.1,30.37,NE,37,1.0,4.0,49,0.00,CLR,,0.00,WeatherDisplay:10.37,2013-02-22 13:00:00,
2013-02-22 08:15:00,28.4,11.6,30.40,NE,35,1.0,3.0,49,0.00,CLR,,0.00,WeatherDisplay:10.37,2013-02-22 13:15:00,
2013-02-22 08:30:00,30.0,12.2,30.40,NNW,348,0.0,0.0,47,0.00,CLR,,0.00,WeatherDisplay:10.37,2013-02-22 13:30:00,
2013-02-22 08:45:00,30.9,12.0,30.40,North,355,1.0,2.0,45,0.00,CLR,,0.00,WeatherDisplay:10.37,2013-02-22 13:45:00,
2013-02-22 09:00:00,31.6,12.7,30.37,NE,49,3.0,6.0,45,0.00,CLR,,0.00,WeatherDisplay:10.37,2013-02-22 14:00:00,
2013-02-22 09:15:00,33.8,13.1,30.40,NE,50,3.0,5.0,42,0.00,CLR,,0.00,WeatherDisplay:10.37,2013-02-22 14:15:00,
2013-02-22 09:30:00,35.1,14.2,30.37,NE,34,3.0,6.0,42,0.00,CLR,,0.00,WeatherDisplay:10.37,2013-02-22 14:30:00,
2013-02-22 09:45:00,36.0,15.1,30.37,NE,56,2.0,5.0,42,0.00,CLR,,0.00,WeatherDisplay:10.37,2013-02-22 14:45:00,
2013-02-22 10:00:00,35.2,15.5,30.37,ENE,59,3.0,6.0,44,0.00,CLR,,0.00,WeatherDisplay:10.37,2013-02-22 15:00:00,
2013-02-22 10:15:00,35.1,16.3,30.37,ENE,76,2.0,6.0,46,0.00,CLR,,0.00,WeatherDisplay:10.37,2013-02-22 15:15:00,
2013-02-22 10:30:00,36.0,17.2,30.37,ENE,66,2.0,6.0,46,0.00,CLR,,0.00,WeatherDisplay:10.37,2013-02-22 15:30:00,
2013-02-22 10:45:00,36.1,17.3,30.37,NE,50,3.0,6.0,46,0.00,CLR,,0.00,WeatherDisplay:10.37,2013-02-22 15:45:00,
2013-02-22 11:00:00,37.2,19.8,30.37,ENE,73,5.0,6.0,49,0.00,CLR,,0.00,WeatherDisplay:10.37,2013-02-22 16:00:00,
2013-02-22 11:15:00,37.6,20.1,30.37,NE,47,3.0,7.0,49,0.00,CLR,,0.00,WeatherDisplay:10.37,2013-02-22 16:15:00,
2013-02-22 11:30:00,37.8,20.3,30.34,ENE,70,3.0,8.0,49,0.00,CLR,,0.00,WeatherDisplay:10.37,2013-02-22 16:30:00,
2013-02-22 11:45:00,39.4,21.3,30.34,NE,52,5.0,10.0,48,0.00,CLR,,0.00,WeatherDisplay:10.37,2013-02-22 16:45:00,
2013-02-22 12:00:00,38.8,22.2,30.34,NE,51,7.0,9.0,51,0.00,CLR,,0.00,WeatherDisplay:10.37,2013-02-22 17:00:00,
2013-02-22 12:15:00,39.2,22.1,30.34,ENE,68,7.0,8.0,50,0.00,CLR,,0.00,WeatherDisplay:10.37,2013-02-22 17:15:00,
2013-02-22 12:30:00,40.8,23.6,30.34,NE,56,8.0,10.0,50,0.00,CLR,,0.00,WeatherDisplay:10.37,2013-02-22 17:30:00,
2013-02-22 12:45:00,41.0,22.8,30.31,NE,47,6.0,9.0,48,0.00,BKN,,0.00,WeatherDisplay:10.37,2013-02-22 17:45:00,
2013-02-22 13:00:00,42.1,24.3,30.31,East,85,7.0,10.0,49,0.00,BKN,,0.00,WeatherDisplay:10.37,2013-02-22 18:00:00,
2013-02-22 13:15:00,41.7,24.4,30.31,ENE,78,7.0,10.0,50,0.00,OVC,,0.00,WeatherDisplay:10.37,2013-02-22 18:15:00,
2013-02-22 13:30:00,40.1,23.4,30.31,ENE,70,6.0,8.0,51,0.00,OVC,,0.00,WeatherDisplay:10.37,2013-02-22 18:30:00,
2013-02-22 13:45:00,40.3,23.1,30.31,ENE,75,5.0,10.0,50,0.00,OVC,,0.00,WeatherDisplay:10.37,2013-02-22 18:45:00,
2013-02-22 14:00:00,40.3,23.6,30.31,NE,54,7.0,10.0,51,0.00,OVC,,0.00,WeatherDisplay:10.37,2013-02-22 19:00:00,
2013-02-22 14:15:00,39.7,24.0,30.31,ENE,75,5.0,8.0,53,0.00,OVC,,0.00,WeatherDisplay:10.37,2013-02-22 19:15:00,
2013-02-22 14:30:00,40.3,24.5,30.31,East,86,6.0,9.0,53,0.00,OVC,,0.00,WeatherDisplay:10.37,2013-02-22 19:30:00,
2013-02-22 14:45:00,40.6,25.3,30.31,ENE,73,5.0,5.0,54,0.00,OVC,,0.00,WeatherDisplay:10.37,2013-02-22 19:45:00,
2013-02-22 15:00:00,40.3,24.9,30.31,East,101,3.0,5.0,54,0.00,OVC,,0.00,WeatherDisplay:10.37,2013-02-22 20:00:00,
2013-02-22 15:15:00,40.1,25.2,30.31,East,84,3.0,6.0,55,0.00,OVC,,0.00,WeatherDisplay:10.37,2013-02-22 20:15:00,
2013-02-22 15:30:00,40.1,25.6,30.31,ENE,60,2.0,6.0,56,0.00,OVC,,0.00,WeatherDisplay:10.37,2013-02-22 20:30:00,
2013-02-22 15:45:00,39.7,25.3,30.31,East,83,5.0,7.0,56,0.00,OVC,,0.00,WeatherDisplay:10.37,2013-02-22 20:45:00,
2013-02-22 16:00:00,38.8,25.7,30.31,ENE,67,5.0,7.0,59,0.00,OVC,,0.00,WeatherDisplay:10.37,2013-02-22 21:00:00,
2013-02-22 16:15:00,38.1,25.4,30.31,East,81,3.0,6.0,60,0.00,OVC,,0.00,WeatherDisplay:10.37,2013-02-22 21:15:00,
2013-02-22 16:30:00,37.8,25.5,30.31,ENE,75,3.0,6.0,61,0.00,OVC,,0.00,WeatherDisplay:10.37,2013-02-22 21:30:00,
2013-02-22 16:45:00,37.6,25.3,30.31,ENE,62,2.0,5.0,61,0.00,OVC,,0.00,WeatherDisplay:10.37,2013-02-22 21:45:00,
2013-02-22 17:00:00,37.4,25.2,30.31,ENE,60,2.0,5.0,61,0.00,OVC,,0.00,WeatherDisplay:10.37,2013-02-22 22:00:00,
2013-02-22 17:15:00,37.2,25.8,30.28,ENE,66,5.0,6.0,63,0.00,OVC,,0.00,WeatherDisplay:10.37,2013-02-22 22:15:00,
2013-02-22 17:30:00,37.0,26.0,30.28,ENE,68,3.0,6.0,64,0.00,OVC,,0.00,WeatherDisplay:10.37,2013-02-22 22:30:00,
2013-02-22 17:45:00,36.9,25.8,30.28,ENE,60,2.0,7.0,64,0.00,OVC,,0.00,WeatherDisplay:10.37,2013-02-22 22:45:00,
2013-02-22 18:00:00,36.9,26.2,30.28,NE,52,3.0,5.0,65,0.00,OVC,,0.00,WeatherDisplay:10.37,2013-02-22 23:00:00,
2013-02-22 18:15:00,36.9,26.2,30.31,ENE,74,3.0,5.0,65,0.00,OVC,,0.00,WeatherDisplay:10.37,2013-02-22 23:15:00,
2013-02-22 18:30:00,36.5,26.6,30.31,NE,55,1.0,2.0,67,0.00,OVC,,0.00,WeatherDisplay:10.37,2013-02-22 23:30:00,
2013-02-22 18:45:00,36.5,26.9,30.31,ENE,61,1.0,4.0,68,0.00,OVC,,0.00,WeatherDisplay:10.37,2013-02-22 23:45:00,
2013-02-22 19:00:00,36.0,27.1,30.31,ENE,60,1.0,2.0,70,0.00,OVC,,0.00,WeatherDisplay:10.37,2013-02-23 00:00:00,
2013-02-22 19:15:00,35.8,28.3,30.31,ENE,60,0.0,0.0,74,0.00,OVC,,0.00,WeatherDisplay:10.37,2013-02-23 00:15:00,
2013-02-22 19:30:00,35.6,28.8,30.31,ENE,64,0.0,2.0,76,0.00,OVC,,0.00,WeatherDisplay:10.37,2013-02-23 00:30:00,
2013-02-22 19:45:00,35.4,29.6,30.28,ENE,76,0.0,1.0,79,0.00,OVC,,0.00,WeatherDisplay:10.37,2013-02-23 00:45:00,
2013-02-22 20:00:00,35.4,29.9,30.28,ENE,69,0.0,2.0,80,0.01,RA,,0.01,WeatherDisplay:10.37,2013-02-23 01:00:00,
2013-02-22 20:15:00,35.4,30.2,30.28,NE,35,0.0,2.0,81,0.00,OVC,,0.01,WeatherDisplay:10.37,2013-02-23 01:15:00,
2013-02-22 20:30:00,35.4,30.5,30.28,NE,35,0.0,0.0,82,0.00,OVC,,0.01,WeatherDisplay:10.37,2013-02-23 01:30:00,
2013-02-22 20:45:00,35.4,30.8,30.28,NE,35,0.0,0.0,83,0.00,CLR,,0.01,WeatherDisplay:10.37,2013-02-23 01:45:00,
2013-02-22 21:00:00,35.4,31.1,30.28,NE,56,0.0,2.0,84,0.00,CLR,,0.01,WeatherDisplay:10.37,2013-02-23 02:00:00,
2013-02-22 21:15:00,35.2,30.9,30.28,ENE,58,1.0,2.0,84,0.00,OVC,,0.01,WeatherDisplay:10.37,2013-02-23 02:15:00,
2013-02-22 21:30:00,35.2,31.2,30.28,ENE,70,0.0,1.0,85,0.01,OVC,,0.03,WeatherDisplay:10.37,2013-02-23 02:30:00,
2013-02-22 21:45:00,35.2,31.5,30.28,NE,51,1.0,5.0,86,0.01,OVC,,0.04,WeatherDisplay:10.37,2013-02-23 02:45:00,
2013-02-22 22:00:00,35.4,31.9,30.25,NE,51,3.0,6.0,87,0.00,OVC,,0.04,WeatherDisplay:10.37,2013-02-23 03:00:00,
2013-02-22 22:15:00,35.6,32.4,30.25,ENE,59,2.0,5.0,88,0.00,OVC,,0.04,WeatherDisplay:10.37,2013-02-23 03:15:00,
2013-02-22 22:30:00,35.6,32.4,30.25,NE,49,3.0,5.0,88,0.00,OVC,,0.04,WeatherDisplay:10.37,2013-02-23 03:30:00,
2013-02-22 22:45:00,35.6,32.7,30.25,NE,50,5.0,7.0,89,0.00,OVC,,0.04,WeatherDisplay:10.37,2013-02-23 03:45:00,
2013-02-22 23:00:00,35.8,33.1,30.25,ENE,58,3.0,5.0,90,0.00,OVC,,0.04,WeatherDisplay:10.37,2013-02-23 04:00:00,
2013-02-22 23:15:00,35.8,33.1,30.25,ENE,59,2.0,5.0,90,0.00,OVC,,0.04,WeatherDisplay:10.37,2013-02-23 04:15:00,
2013-02-22 23:30:00,35.8,33.1,30.22,ENE,70,1.0,3.0,90,0.00,OVC,,0.04,WeatherDisplay:10.37,2013-02-23 04:30:00,
2013-02-22 23:45:00,36.0,33.6,30.25,ENE,67,1.0,3.0,91,0.01,RA,,0.06,WeatherDisplay:10.37,2013-02-23 04:45:00,